createdAt,value
2023-02-11T00:02:01.644Z,101411.84
2023-02-11T00:04:34.205Z,101415.08
2023-02-11T00:07:06.442Z,101416.06
2023-02-11T00:09:38.601Z,101420.83
2023-02-11T00:12:10.914Z,101421.74
2023-02-11T00:14:43.350Z,101424.59
2023-02-11T00:17:15.856Z,101425.54
2023-02-11T00:19:50.354Z,101428.27
2023-02-11T00:22:22.726Z,101421.65
2023-02-11T00:24:55.017Z,101424.19
2023-02-11T00:27:27.523Z,101421.33
2023-02-11T00:30:02.405Z,101413.73
2023-02-11T00:32:36.568Z,101407.54
2023-02-11T00:35:11.454Z,101404.06
2023-02-11T00:37:44.630Z,101392.09
2023-02-11T00:40:16.914Z,101385.70
2023-02-11T00:42:49.254Z,101376.21
2023-02-11T00:45:22.580Z,101373.67
2023-02-11T00:47:54.694Z,101368.16
2023-02-11T00:50:27.170Z,101360.23
2023-02-11T00:53:01.439Z,101359.27
2023-02-11T00:55:35.765Z,101358.70
2023-02-11T00:58:07.965Z,101355.84
2023-02-11T01:00:41.525Z,101354.92
2023-02-11T01:03:13.682Z,101346.58
2023-02-11T01:05:46.081Z,101337.35
2023-02-11T01:08:18.388Z,101334.91
2023-02-11T01:10:57.219Z,101328.51
2023-02-11T01:13:30.261Z,101317.30
2023-02-11T01:16:02.718Z,101309.38
2023-02-11T01:18:35.415Z,101306.61
2023-02-11T01:21:08.963Z,101299.69
2023-02-11T01:23:41.239Z,101285.73
2023-02-11T01:26:13.614Z,101277.22
2023-02-11T01:28:46.189Z,101282.73
2023-02-11T01:31:18.691Z,101285.77
2023-02-11T01:33:51.017Z,101277.25
2023-02-11T01:36:23.147Z,101275.56
2023-02-11T01:38:55.679Z,101267.07
2023-02-11T01:41:28.240Z,101271.57
2023-02-11T01:44:29.659Z,101266.27
2023-02-11T01:47:04.905Z,101259.11
2023-02-11T01:49:39.885Z,101248.16
2023-02-11T01:52:15.784Z,101243.86
2023-02-11T01:55:10.080Z,101234.54
2023-02-11T01:57:46.597Z,101224.62
2023-02-11T02:00:20.584Z,101220.84
2023-02-11T02:02:59.193Z,101218.63
2023-02-11T02:05:37.407Z,101213.58
2023-02-11T02:08:15.828Z,101209.77
2023-02-11T02:10:54.013Z,101201.73
2023-02-11T02:13:27.154Z,101201.32
2023-02-11T02:16:01.242Z,101202.12
2023-02-11T02:18:51.201Z,101202.64
2023-02-11T02:22:10.878Z,101205.97
2023-02-11T02:24:56.678Z,101194.55
2023-02-11T02:27:38.896Z,101188.57
2023-02-11T02:30:47.941Z,101180.83
2023-02-11T02:33:35.461Z,101170.88
2023-02-11T02:36:16.113Z,101167.56
2023-02-11T02:38:54.421Z,101171.34
2023-02-11T02:41:29.981Z,101177.43
2023-02-11T02:44:02.336Z,101174.98
2023-02-11T02:46:36.516Z,101169.98
2023-02-11T02:49:16.198Z,101166.34
2023-02-11T02:52:15.820Z,101167.70
2023-02-11T02:55:13.018Z,101171.51
2023-02-11T02:58:01.652Z,101170.45
2023-02-11T03:00:44.334Z,101166.67
2023-02-11T03:03:31.422Z,101162.14
2023-02-11T03:06:06.726Z,101164.95
2023-02-11T03:08:44.930Z,101161.41
2023-02-11T03:11:20.822Z,101163.55
2023-02-11T03:13:55.177Z,101154.77
2023-02-11T03:16:29.171Z,101144.27
2023-02-11T03:19:05.205Z,101137.41
2023-02-11T03:21:42.639Z,101131.48
2023-02-11T03:24:18.612Z,101124.73
2023-02-11T03:26:53.862Z,101122.03
2023-02-11T03:29:36.206Z,101117.98
2023-02-11T03:32:16.397Z,101109.19
2023-02-11T03:34:54.328Z,101098.03
2023-02-11T03:37:30.157Z,101090.18
2023-02-11T03:40:06.467Z,101082.92
2023-02-11T03:42:42.241Z,101072.13
2023-02-11T03:45:18.678Z,101061.58
2023-02-11T03:47:52.255Z,101052.95
2023-02-11T03:50:27.861Z,101060.06
2023-02-11T03:53:03.125Z,101059.52
2023-02-11T03:55:40.593Z,101053.97
2023-02-11T03:58:13.443Z,101047.20
2023-02-11T04:00:46.468Z,101037.90
2023-02-11T04:03:19.327Z,101042.65
2023-02-11T04:05:52.423Z,101043.92
2023-02-11T04:08:24.792Z,101049.11
2023-02-11T04:10:56.859Z,101053.51
2023-02-11T04:13:29.159Z,101043.66
2023-02-11T04:16:01.370Z,101041.25
2023-02-11T04:18:33.571Z,101042.78
2023-02-11T04:21:05.808Z,101033.84
2023-02-11T04:23:38.346Z,101028.61
2023-02-11T04:26:10.477Z,101031.19
2023-02-11T04:28:42.830Z,101037.10
2023-02-11T04:31:15.070Z,101034.83
2023-02-11T04:33:48.102Z,101042.92
2023-02-11T04:36:20.230Z,101025.30
2023-02-11T04:38:52.558Z,101010.76
2023-02-11T04:41:24.635Z,101011.14
2023-02-11T04:43:56.794Z,101008.15
2023-02-11T04:46:29.032Z,101014.76
2023-02-11T04:49:01.358Z,101008.97
2023-02-11T04:51:34.454Z,101005.63
2023-02-11T04:54:06.842Z,101010.56
2023-02-11T04:56:39.003Z,101020.55
2023-02-11T04:59:12.041Z,101024.52
2023-02-11T05:01:44.747Z,101026.48
2023-02-11T05:04:17.391Z,101027.16
2023-02-11T05:06:49.772Z,101027.73
2023-02-11T05:09:22.367Z,101025.23
2023-02-11T05:11:54.803Z,101019.52
2023-02-11T05:14:27.079Z,101014.88
2023-02-11T05:16:59.201Z,101017.64
2023-02-11T05:19:32.557Z,101015.03
2023-02-11T05:22:05.055Z,101018.38
2023-02-11T05:24:37.458Z,101024.42
2023-02-11T05:27:09.672Z,101019.50
2023-02-11T05:29:41.987Z,101021.06
2023-02-11T05:32:14.391Z,101023.66
2023-02-11T05:34:46.931Z,101027.13
2023-02-11T05:37:19.580Z,101029.48
2023-02-11T05:39:52.301Z,101024.06
2023-02-11T05:42:24.381Z,101024.75
2023-02-11T05:44:56.436Z,101026.06
2023-02-11T05:47:29.020Z,101024.10
2023-02-11T05:50:01.754Z,101018.60
2023-02-11T05:52:34.272Z,101017.14
2023-02-11T05:55:07.836Z,101013.40
2023-02-11T05:57:40.190Z,101009.25
2023-02-11T06:00:14.930Z,101005.98
2023-02-11T06:02:47.248Z,101004.31
2023-02-11T06:05:20.400Z,101001.77
2023-02-11T06:07:52.578Z,100994.16
2023-02-11T06:10:25.001Z,100989.17
2023-02-11T06:12:57.148Z,100985.69
2023-02-11T06:15:29.570Z,100982.99
2023-02-11T06:18:01.782Z,100983.67
2023-02-11T06:20:34.111Z,100982.16
2023-02-11T06:23:06.221Z,100976.94
2023-02-11T06:25:38.658Z,100968.21
2023-02-11T06:28:11.623Z,100965.21
2023-02-11T06:30:43.991Z,100972.23
2023-02-11T06:33:16.913Z,100973.96
2023-02-11T06:35:49.444Z,100968.36
2023-02-11T06:38:24.144Z,100968.88
2023-02-11T06:40:56.426Z,100971.04
2023-02-11T06:43:28.777Z,100971.16
2023-02-11T06:46:01.471Z,100975.81
2023-02-11T06:48:34.066Z,100987.21
2023-02-11T06:51:08.364Z,100988.02
2023-02-11T06:53:42.348Z,100995.40
2023-02-11T06:56:16.981Z,100990.69
2023-02-11T06:58:49.209Z,100988.40
2023-02-11T07:01:21.483Z,100990.69
2023-02-11T07:03:54.820Z,100984.51
2023-02-11T07:06:28.543Z,100975.92
2023-02-11T07:09:00.797Z,100984.02
2023-02-11T07:11:33.776Z,100979.79
2023-02-11T07:14:09.525Z,100973.29
2023-02-11T07:16:42.173Z,100972.40
2023-02-11T07:19:14.567Z,100963.09
2023-02-11T07:21:46.772Z,100958.30
2023-02-11T07:24:18.933Z,100960.09
2023-02-11T07:26:51.514Z,100955.06
2023-02-11T07:29:23.915Z,100946.28
2023-02-11T07:31:56.432Z,100946.30
2023-02-11T07:34:28.945Z,100944.86
2023-02-11T07:37:01.213Z,100940.27
2023-02-11T07:39:33.597Z,100943.73
2023-02-11T07:42:10.563Z,100937.00
2023-02-11T07:44:44.668Z,100925.05
2023-02-11T07:47:17.240Z,100922.67
2023-02-11T07:49:51.158Z,100918.27
2023-02-11T07:52:24.686Z,100921.45
2023-02-11T07:54:57.959Z,100919.19
2023-02-11T07:57:30.807Z,100917.58
2023-02-11T08:00:03.132Z,100917.84
2023-02-11T08:02:43.002Z,100919.66
2023-02-11T08:05:15.423Z,100921.48
2023-02-11T08:07:47.598Z,100920.25
2023-02-11T08:10:19.753Z,100917.15
2023-02-11T08:12:51.948Z,100919.23
2023-02-11T08:15:24.349Z,100923.48
2023-02-11T08:17:56.682Z,100921.67
2023-02-11T08:20:29.755Z,100923.07
2023-02-11T08:23:02.274Z,100927.21
2023-02-11T08:25:35.528Z,100935.96
2023-02-11T08:28:09.434Z,100939.79
2023-02-11T08:30:41.733Z,100937.57
2023-02-11T08:33:13.900Z,100928.04
2023-02-11T08:35:46.678Z,100920.13
2023-02-11T08:38:19.053Z,100920.58
2023-02-11T08:40:51.522Z,100930.56
2023-02-11T08:43:24.920Z,100928.12
2023-02-11T08:45:59.521Z,100921.19
2023-02-11T08:48:34.421Z,100918.91
2023-02-11T08:51:11.290Z,100917.91
2023-02-11T08:53:43.624Z,100911.66
2023-02-11T08:56:17.540Z,100915.48
2023-02-11T08:58:50.639Z,100918.80
2023-02-11T09:01:26.245Z,100929.86
2023-02-11T09:03:59.598Z,100936.68
2023-02-11T09:06:32.081Z,100940.10
2023-02-11T09:09:04.658Z,100934.27
2023-02-11T09:11:38.199Z,100940.30
2023-02-11T09:14:16.639Z,100948.35
2023-02-11T09:16:49.398Z,100952.66
2023-02-11T09:19:23.234Z,100963.48
2023-02-11T09:21:55.985Z,100972.91
2023-02-11T09:24:29.017Z,100978.66
2023-02-11T09:27:01.363Z,100978.89
2023-02-11T09:29:33.761Z,100972.96
2023-02-11T09:32:09.754Z,100966.45
2023-02-11T09:34:43.078Z,100965.59
2023-02-11T09:37:15.379Z,100969.88
2023-02-11T09:39:47.960Z,100962.29
2023-02-11T09:42:45.631Z,100962.45
2023-02-11T09:45:23.756Z,100968.64
2023-02-11T09:48:00.516Z,100961.98
2023-02-11T09:50:37.118Z,100959.40
2023-02-11T09:53:16.320Z,100952.13
2023-02-11T09:55:55.965Z,100945.34
2023-02-11T09:58:32.095Z,100937.50
2023-02-11T10:01:10.476Z,100924.39
2023-02-11T10:04:00.688Z,100915.71
2023-02-11T10:06:40.902Z,100914.91
2023-02-11T10:09:33.324Z,100907.52
2023-02-11T10:12:23.641Z,100908.09
2023-02-11T10:15:23.790Z,100898.42
2023-02-11T10:18:12.089Z,100878.77
2023-02-11T10:20:58.696Z,100870.65
2023-02-11T10:23:37.517Z,100859.98
2023-02-11T10:26:16.342Z,100849.21
2023-02-11T10:28:51.083Z,100839.02
2023-02-11T10:31:26.445Z,100821.40
2023-02-11T10:34:03.796Z,100810.89
2023-02-11T10:36:38.901Z,100798.04
2023-02-11T10:39:16.215Z,100788.74
2023-02-11T10:41:52.583Z,100778.81
2023-02-11T10:44:29.132Z,100775.97
2023-02-11T10:47:06.395Z,100780.48
2023-02-11T10:49:41.187Z,100776.55
2023-02-11T10:52:23.948Z,100778.98
2023-02-11T10:55:06.634Z,100780.27
2023-02-11T10:57:44.811Z,100781.44
2023-02-11T11:00:41.311Z,100772.59
2023-02-11T11:03:22.654Z,100775.46
2023-02-11T11:05:58.560Z,100779.20
2023-02-11T11:08:43.823Z,100781.78
2023-02-11T11:11:19.464Z,100779.42
2023-02-11T11:14:01.230Z,100774.11
2023-02-11T11:16:36.555Z,100764.62
2023-02-11T11:19:26.465Z,100766.76
2023-02-11T11:22:00.791Z,100772.66
2023-02-11T11:24:42.893Z,100771.86
2023-02-11T11:27:22.955Z,100762.86
2023-02-11T11:29:58.345Z,100761.09
2023-02-11T11:32:33.687Z,100758.75
2023-02-11T11:35:22.600Z,100761.61
2023-02-11T11:38:01.735Z,100754.23
2023-02-11T11:40:35.801Z,100749.48
2023-02-11T11:43:23.240Z,100741.63
2023-02-11T11:46:03.009Z,100756.86
2023-02-11T11:48:39.613Z,100763.87
2023-02-11T11:51:14.903Z,100765.55
2023-02-11T11:53:54.737Z,100766.39
2023-02-11T11:56:30.252Z,100780.46
2023-02-11T11:59:12.320Z,100781.10
2023-02-11T12:01:49.366Z,100772.71
2023-02-11T12:04:40.586Z,100777.09
2023-02-11T12:07:26.077Z,100763.84
2023-02-11T12:10:26.702Z,100760.02
2023-02-11T12:13:08.250Z,100764.71
2023-02-11T12:15:50.997Z,100768.70
2023-02-11T12:18:45.545Z,100769.10
2023-02-11T12:21:31.005Z,100766.06
2023-02-11T12:24:17.512Z,100759.18
2023-02-11T12:26:57.905Z,100749.27
2023-02-11T12:29:50.105Z,100746.77
2023-02-11T12:32:36.646Z,100749.30
2023-02-11T12:35:24.685Z,100744.56
2023-02-11T12:38:21.818Z,100744.67
2023-02-11T12:41:10.464Z,100747.02
2023-02-11T12:43:45.583Z,100748.81
2023-02-11T12:46:44.682Z,100745.29
2023-02-11T12:49:34.709Z,100739.38
2023-02-11T12:52:29.444Z,100734.66
2023-02-11T12:55:09.370Z,100734.05
2023-02-11T12:57:45.810Z,100725.44
2023-02-11T13:00:22.457Z,100715.02
2023-02-11T13:03:01.599Z,100702.14
2023-02-11T13:05:40.847Z,100703.48
2023-02-11T13:08:17.404Z,100704.47
2023-02-11T13:10:54.349Z,100708.55
2023-02-11T13:13:31.282Z,100707.98
2023-02-11T13:16:08.039Z,100703.93
2023-02-11T13:18:51.006Z,100696.20
2023-02-11T13:21:37.889Z,100696.25
2023-02-11T13:24:20.925Z,100706.23
2023-02-11T13:27:02.555Z,100706.57
2023-02-11T13:29:44.931Z,100708.30
2023-02-11T13:32:16.406Z,100711.72
2023-02-11T13:35:00.537Z,100699.83
2023-02-11T13:37:37.945Z,100674.68
2023-02-11T13:40:24.928Z,100653.14
2023-02-11T13:43:00.109Z,100648.40
2023-02-11T13:45:37.192Z,100662.88
2023-02-11T13:48:21.492Z,100662.38
2023-02-11T13:50:57.379Z,100662.09
2023-02-11T13:53:30.758Z,100652.85
2023-02-11T13:56:11.608Z,100661.22
2023-02-11T13:58:51.980Z,100660.11
2023-02-11T14:02:16.374Z,100654.59
2023-02-11T14:05:38.091Z,100661.82
2023-02-11T14:08:43.136Z,100657.39
2023-02-11T14:11:49.131Z,100657.95
2023-02-11T14:14:28.093Z,100659.16
2023-02-11T14:17:31.225Z,100660.46
2023-02-11T14:20:27.591Z,100665.66
2023-02-11T14:23:00.296Z,100666.63
2023-02-11T14:25:33.266Z,100669.93
2023-02-11T14:28:16.410Z,100670.63
2023-02-11T14:31:05.212Z,100668.92
2023-02-11T14:34:14.574Z,100679.88
2023-02-11T14:37:05.194Z,100684.86
2023-02-11T14:39:52.832Z,100690.92
2023-02-11T14:42:28.422Z,100688.08
2023-02-11T14:45:05.816Z,100686.13
2023-02-11T14:47:46.668Z,100689.42
2023-02-11T14:50:24.350Z,100690.98
2023-02-11T14:53:00.217Z,100694.23
2023-02-11T14:55:37.379Z,100697.38
2023-02-11T14:58:17.886Z,100697.13
2023-02-11T15:00:57.484Z,100702.30
2023-02-11T15:03:37.702Z,100710.36
2023-02-11T15:06:18.553Z,100712.87
2023-02-11T15:08:54.713Z,100718.20
2023-02-11T15:11:30.116Z,100722.93
2023-02-11T15:14:09.297Z,100724.48
2023-02-11T15:16:46.899Z,100720.99
2023-02-11T15:19:26.870Z,100713.88
2023-02-11T15:21:59.776Z,100719.35
2023-02-11T15:24:35.151Z,100729.25
2023-02-11T15:27:15.583Z,100738.56
2023-02-11T15:29:50.830Z,100744.38
2023-02-11T15:32:26.719Z,100742.60
2023-02-11T15:34:59.235Z,100744.34
2023-02-11T15:37:32.418Z,100751.55
2023-02-11T15:40:19.003Z,100752.70
2023-02-11T15:42:59.356Z,100755.61
2023-02-11T15:45:35.051Z,100758.48
2023-02-11T15:48:15.353Z,100762.45
2023-02-11T15:50:55.088Z,100765.55
2023-02-11T15:53:32.673Z,100763.98
2023-02-11T15:56:11.410Z,100766.73
2023-02-11T15:58:46.239Z,100768.78
2023-02-11T16:01:19.064Z,100764.70
2023-02-11T16:03:54.122Z,100767.73
2023-02-11T16:06:29.541Z,100771.35
2023-02-11T16:09:05.863Z,100775.14
2023-02-11T16:11:55.116Z,100778.44
2023-02-11T16:14:32.799Z,100783.06
2023-02-11T16:17:10.522Z,100782.00
2023-02-11T16:19:49.014Z,100785.85
2023-02-11T16:22:26.386Z,100785.38
2023-02-11T16:25:01.051Z,100788.43
2023-02-11T16:27:39.287Z,100787.56
2023-02-11T16:30:29.271Z,100784.17
2023-02-11T16:33:01.820Z,100787.33
2023-02-11T16:35:34.007Z,100787.75
2023-02-11T16:38:06.572Z,100795.15
2023-02-11T16:40:38.990Z,100794.63
2023-02-11T16:43:11.985Z,100799.13
2023-02-11T16:45:44.920Z,100792.84
2023-02-11T16:48:20.369Z,100789.52
2023-02-11T16:50:53.727Z,100793.49
2023-02-11T16:53:27.251Z,100795.05
2023-02-11T16:55:59.379Z,100797.94
2023-02-11T16:58:32.121Z,100800.83
2023-02-11T17:01:05.432Z,100799.20
2023-02-11T17:03:40.731Z,100797.61
2023-02-11T17:06:14.637Z,100794.44
2023-02-11T17:08:47.967Z,100793.55
2023-02-11T17:11:20.415Z,100791.00
2023-02-11T17:13:52.664Z,100796.56
2023-02-11T17:16:28.054Z,100799.73
2023-02-11T17:19:00.263Z,100800.50
2023-02-11T17:21:32.634Z,100800.46
2023-02-11T17:24:05.048Z,100804.08
2023-02-11T17:26:37.654Z,100810.11
2023-02-11T17:29:11.656Z,100811.28
2023-02-11T17:31:44.693Z,100812.14
2023-02-11T17:34:18.843Z,100810.84
2023-02-11T17:36:52.312Z,100813.92
2023-02-11T17:39:24.732Z,100814.86
2023-02-11T17:41:57.004Z,100815.78
2023-02-11T17:44:30.688Z,100812.99
2023-02-11T17:47:03.059Z,100811.88
2023-02-11T17:49:35.356Z,100812.30
2023-02-11T17:52:07.848Z,100821.41
2023-02-11T17:54:40.972Z,100822.07
2023-02-11T17:57:15.200Z,100817.30
2023-02-11T17:59:48.111Z,100821.92
2023-02-11T18:02:20.894Z,100815.64
2023-02-11T18:04:56.017Z,100820.73
2023-02-11T18:07:30.364Z,100820.81
2023-02-11T18:10:03.427Z,100827.25
2023-02-11T18:12:36.137Z,100826.44
2023-02-11T18:15:10.375Z,100828.11
2023-02-11T18:17:43.189Z,100835.66
2023-02-11T18:20:16.116Z,100830.89
2023-02-11T18:22:50.312Z,100835.45
2023-02-11T18:25:23.808Z,100840.26
2023-02-11T18:27:56.024Z,100834.70
2023-02-11T18:30:29.696Z,100838.13
2023-02-11T18:33:04.907Z,100838.16
2023-02-11T18:35:40.375Z,100839.14
2023-02-11T18:38:12.852Z,100845.32
2023-02-11T18:40:47.590Z,100847.23
2023-02-11T18:43:19.973Z,100844.89
2023-02-11T18:45:53.321Z,100843.36
2023-02-11T18:48:27.443Z,100837.98
2023-02-11T18:50:59.738Z,100838.17
2023-02-11T18:53:32.259Z,100841.95
2023-02-11T18:56:10.949Z,100845.79
2023-02-11T18:58:43.568Z,100844.58
2023-02-11T19:01:20.844Z,100842.60
2023-02-11T19:03:53.974Z,100845.50
2023-02-11T19:06:28.934Z,100849.48
2023-02-11T19:09:05.330Z,100853.92
2023-02-11T19:11:51.129Z,100853.64
2023-02-11T19:14:26.256Z,100853.20
2023-02-11T19:17:00.550Z,100863.23
2023-02-11T19:19:35.796Z,100870.30
2023-02-11T19:22:10.509Z,100874.45
2023-02-11T19:24:43.514Z,100875.23
2023-02-11T19:27:16.145Z,100873.63
2023-02-11T19:29:48.420Z,100872.53
2023-02-11T19:32:20.745Z,100874.41
2023-02-11T19:34:53.787Z,100876.20
2023-02-11T19:37:25.950Z,100875.06
2023-02-11T19:39:58.525Z,100877.68
2023-02-11T19:42:31.403Z,100875.67
2023-02-11T19:45:03.795Z,100876.27
2023-02-11T19:47:36.412Z,100877.73
2023-02-11T19:50:10.781Z,100878.05
2023-02-11T19:52:43.569Z,100877.58
2023-02-11T19:55:16.305Z,100879.11
2023-02-11T19:57:48.967Z,100878.96
2023-02-11T20:00:22.790Z,100879.77
2023-02-11T20:02:55.139Z,100876.77
2023-02-11T20:05:27.688Z,100877.89
2023-02-11T20:08:00.432Z,100877.39
2023-02-11T20:10:33.015Z,100874.94
2023-02-11T20:13:05.406Z,100881.83
2023-02-11T20:15:38.093Z,100881.66
2023-02-11T20:18:10.570Z,100883.86
2023-02-11T20:20:43.205Z,100883.94
2023-02-11T20:23:15.892Z,100888.16
2023-02-11T20:25:48.656Z,100886.34
2023-02-11T20:28:20.936Z,100887.10
2023-02-11T20:30:59.900Z,100891.64
2023-02-11T20:33:32.636Z,100893.11
2023-02-11T20:36:08.187Z,100898.05
2023-02-11T20:38:40.811Z,100894.45
2023-02-11T20:41:16.822Z,100903.40
2023-02-11T20:43:52.568Z,100897.27
2023-02-11T20:46:28.393Z,100897.59
2023-02-11T20:49:01.690Z,100899.58
2023-02-11T20:51:37.067Z,100899.90
2023-02-11T20:54:12.737Z,100900.71
2023-02-11T20:56:47.846Z,100901.32
2023-02-11T20:59:21.247Z,100909.10
2023-02-11T21:01:56.678Z,100908.75
2023-02-11T21:04:30.932Z,100911.29
2023-02-11T21:07:04.240Z,100914.02
2023-02-11T21:09:36.797Z,100920.32
2023-02-11T21:12:09.591Z,100918.20
2023-02-11T21:14:42.059Z,100925.98
2023-02-11T21:17:14.736Z,100928.90
2023-02-11T21:19:47.315Z,100931.17
2023-02-11T21:22:20.395Z,100929.70
2023-02-11T21:24:53.420Z,100934.56
2023-02-11T21:27:31.307Z,100938.30
2023-02-11T21:30:03.791Z,100945.15
2023-02-11T21:32:36.139Z,100945.15
2023-02-11T21:35:10.590Z,100948.95
2023-02-11T21:37:42.929Z,100957.60
2023-02-11T21:40:16.203Z,100963.95
2023-02-11T21:42:48.690Z,100970.48
2023-02-11T21:45:21.696Z,100978.02
2023-02-11T21:47:54.745Z,100985.00
2023-02-11T21:50:27.425Z,100986.61
2023-02-11T21:52:59.589Z,100993.54
2023-02-11T21:55:31.790Z,101000.13
2023-02-11T21:58:04.658Z,100998.38
2023-02-11T22:00:36.961Z,101001.48
2023-02-11T22:03:09.423Z,101003.09
2023-02-11T22:05:44.141Z,100999.11
2023-02-11T22:08:19.162Z,101000.30
2023-02-11T22:10:52.558Z,100999.55
2023-02-11T22:13:24.983Z,100994.17
2023-02-11T22:16:02.929Z,100985.91
2023-02-11T22:18:35.623Z,100990.24
2023-02-11T22:21:10.350Z,100991.61
2023-02-11T22:23:43.397Z,100996.27
2023-02-11T22:26:18.604Z,101000.00
2023-02-11T22:28:51.782Z,101010.24
2023-02-11T22:31:26.372Z,101017.98
2023-02-11T22:33:59.218Z,101018.78
2023-02-11T22:36:33.274Z,101022.84
2023-02-11T22:39:08.939Z,101021.86
2023-02-11T22:41:43.790Z,101031.29
2023-02-11T22:44:17.655Z,101036.59
2023-02-11T22:46:50.289Z,101037.34
2023-02-11T22:49:23.495Z,101040.56
2023-02-11T22:51:56.066Z,101041.27
2023-02-11T22:54:28.803Z,101041.02
2023-02-11T22:57:01.245Z,101041.89
2023-02-11T22:59:33.442Z,101045.58
2023-02-11T23:02:05.835Z,101043.98
2023-02-11T23:04:38.185Z,101045.16
2023-02-11T23:07:10.993Z,101046.95
2023-02-11T23:09:43.719Z,101045.59
2023-02-11T23:12:16.443Z,101041.34
2023-02-11T23:14:48.761Z,101044.20
2023-02-11T23:17:21.279Z,101048.45
2023-02-11T23:19:54.537Z,101042.63
2023-02-11T23:22:27.150Z,101042.13
2023-02-11T23:24:59.957Z,101047.18
2023-02-11T23:27:32.520Z,101046.52
2023-02-11T23:30:05.558Z,101040.77
2023-02-11T23:32:41.064Z,101049.84
2023-02-11T23:35:21.995Z,101055.79
2023-02-11T23:37:56.522Z,101055.16
2023-02-11T23:40:29.190Z,101058.20
2023-02-11T23:43:01.739Z,101056.58
2023-02-11T23:45:34.327Z,101058.96
2023-02-11T23:48:07.050Z,101062.60
2023-02-11T23:50:44.079Z,101063.57
2023-02-11T23:53:17.199Z,101071.77
2023-02-11T23:55:49.577Z,101073.29
2023-02-11T23:58:21.941Z,101077.21
